<?xml version="1.0" encoding="UTF-8"?><gpx xmlns="http://www.topografix.com/GPX/1/1"  creator="TraceDeTrail http://www.tracedetrail.fr" version="1.1" xmlns:xsi="http://www.w3.org/2001/XMLSchema-instance" xsi:schemaLocation="http://www.topografix.com/GPX/1/1 http://www.topografix.com/GPX/1/1/gpx.xsd "><metadata><name>GR738 De Chamrousse au Refuge de la Pra</name><link href="http://tracedetrail.fr/fr/trace/trace/126985"><text>methode de calcul : astergdem </text></link></metadata><trk><name>GR738 De Chamrousse au Refuge de la Pra sur TraceDeTrail.fr</name><trkseg><trkpt lat="45.12631" lon="5.87912"><ele>1678</ele><time>2000-01-01T01:46:08.000Z</time></trkpt><trkpt lat="45.1264" lon="5.87966"><ele>1681</ele><time>2000-01-01T01:46:18.000Z</time></trkpt><trkpt lat="45.12668" lon="5.87978"><ele>1690</ele><time>2000-01-01T01:46:28.000Z</time></trkpt><trkpt lat="45.1271" lon="5.87996"><ele>1701</ele><time>2000-01-01T01:46:38.000Z</time></trkpt><trkpt lat="45.1274" lon="5.87985"><ele>1707</ele><time>2000-01-01T01:46:48.000Z</time></trkpt><trkpt lat="45.12764" lon="5.88009"><ele>1714</ele><time>2000-01-01T01:46:58.000Z</time></trkpt><trkpt lat="45.12802" lon="5.88045"><ele>1741</ele><time>2000-01-01T01:47:08.000Z</time></trkpt><trkpt lat="45.12811" lon="5.88083"><ele>1743</ele><time>2000-01-01T01:47:18.000Z</time></trkpt><trkpt lat="45.12824" lon="5.88135"><ele>1743</ele><time>2000-01-01T01:47:28.000Z</time></trkpt><trkpt lat="45.12843" lon="5.88174"><ele>1744</ele><time>2000-01-01T01:47:38.000Z</time></trkpt><trkpt lat="45.12862" lon="5.88213"><ele>1764</ele><time>2000-01-01T01:47:48.000Z</time></trkpt><trkpt lat="45.12887" lon="5.88264"><ele>1769</ele><time>2000-01-01T01:47:58.000Z</time></trkpt><trkpt lat="45.12882" lon="5.88298"><ele>1775</ele><time>2000-01-01T01:48:08.000Z</time></trkpt><trkpt lat="45.12877" lon="5.88335"><ele>1778</ele><time>2000-01-01T01:48:18.000Z</time></trkpt><trkpt lat="45.12904" lon="5.88384"><ele>1785</ele><time>2000-01-01T01:48:28.000Z</time></trkpt><trkpt lat="45.12912" lon="5.8842"><ele>1798</ele><time>2000-01-01T01:48:38.000Z</time></trkpt><trkpt lat="45.12924" lon="5.88466"><ele>1808</ele><time>2000-01-01T01:48:48.000Z</time></trkpt><trkpt lat="45.12945" lon="5.88495"><ele>1810</ele><time>2000-01-01T01:48:58.000Z</time></trkpt><trkpt lat="45.12962" lon="5.8852"><ele>1813</ele><time>2000-01-01T01:49:08.000Z</time></trkpt><trkpt lat="45.12981" lon="5.88545"><ele>1813</ele><time>2000-01-01T01:49:18.000Z</time></trkpt><trkpt lat="45.12992" lon="5.88582"><ele>1792</ele><time>2000-01-01T01:49:28.000Z</time></trkpt><trkpt lat="45.13008" lon="5.88635"><ele>1791</ele><time>2000-01-01T01:49:38.000Z</time></trkpt><trkpt lat="45.13011" lon="5.88671"><ele>1790</ele><time>2000-01-01T01:49:48.000Z</time></trkpt><trkpt lat="45.13014" lon="5.8871"><ele>1794</ele><time>2000-01-01T01:49:58.000Z</time></trkpt><trkpt lat="45.12981" lon="5.88749"><ele>1792</ele><time>2000-01-01T01:50:08.000Z</time></trkpt><trkpt lat="45.12971" lon="5.88785"><ele>1791</ele><time>2000-01-01T01:50:18.000Z</time></trkpt><trkpt lat="45.12957" lon="5.88835"><ele>1790</ele><time>2000-01-01T01:50:28.000Z</time></trkpt><trkpt lat="45.1295" lon="5.88868"><ele>1776</ele><time>2000-01-01T01:50:38.000Z</time></trkpt><trkpt lat="45.12943" lon="5.88904"><ele>1774</ele><time>2000-01-01T01:50:48.000Z</time></trkpt><trkpt lat="45.12951" lon="5.88966"><ele>1772</ele><time>2000-01-01T01:50:58.000Z</time></trkpt><trkpt lat="45.12969" lon="5.88989"><ele>1761</ele><time>2000-01-01T01:51:08.000Z</time></trkpt><trkpt lat="45.1299" lon="5.89015"><ele>1759</ele><time>2000-01-01T01:51:18.000Z</time></trkpt><trkpt lat="45.13018" lon="5.8903"><ele>1760</ele><time>2000-01-01T01:51:28.000Z</time></trkpt><trkpt lat="45.1304" lon="5.89043"><ele>1762</ele><time>2000-01-01T01:51:38.000Z</time></trkpt><trkpt lat="45.13064" lon="5.89056"><ele>1765</ele><time>2000-01-01T01:51:48.000Z</time></trkpt><trkpt lat="45.13087" lon="5.89084"><ele>1769</ele><time>2000-01-01T01:51:58.000Z</time></trkpt><trkpt lat="45.13106" lon="5.89108"><ele>1774</ele><time>2000-01-01T01:52:08.000Z</time></trkpt><trkpt lat="45.13126" lon="5.89133"><ele>1773</ele><time>2000-01-01T01:52:18.000Z</time></trkpt><trkpt lat="45.13147" lon="5.89163"><ele>1773</ele><time>2000-01-01T01:52:28.000Z</time></trkpt><trkpt lat="45.13164" lon="5.89187"><ele>1772</ele><time>2000-01-01T01:52:38.000Z</time></trkpt><trkpt lat="45.13182" lon="5.89213"><ele>1772</ele><time>2000-01-01T01:52:48.000Z</time></trkpt><trkpt lat="45.13202" lon="5.89246"><ele>1760</ele><time>2000-01-01T01:52:58.000Z</time></trkpt><trkpt lat="45.13218" lon="5.89275"><ele>1762</ele><time>2000-01-01T01:53:08.000Z</time></trkpt><trkpt lat="45.13238" lon="5.89309"><ele>1756</ele><time>2000-01-01T01:53:18.000Z</time></trkpt><trkpt lat="45.13261" lon="5.89345"><ele>1760</ele><time>2000-01-01T01:53:28.000Z</time></trkpt><trkpt lat="45.13283" lon="5.89382"><ele>1764</ele><time>2000-01-01T01:53:38.000Z</time></trkpt><trkpt lat="45.13299" lon="5.89408"><ele>1764</ele><time>2000-01-01T01:53:48.000Z</time></trkpt><trkpt lat="45.13316" lon="5.89436"><ele>1765</ele><time>2000-01-01T01:53:58.000Z</time></trkpt><trkpt lat="45.13325" lon="5.89477"><ele>1767</ele><time>2000-01-01T01:54:08.000Z</time></trkpt><trkpt lat="45.1335" lon="5.89508"><ele>1773</ele><time>2000-01-01T01:54:18.000Z</time></trkpt><trkpt lat="45.13376" lon="5.8954"><ele>1774</ele><time>2000-01-01T01:54:28.000Z</time></trkpt><trkpt lat="45.13395" lon="5.89564"><ele>1776</ele><time>2000-01-01T01:54:38.000Z</time></trkpt><trkpt lat="45.13417" lon="5.8959"><ele>1781</ele><time>2000-01-01T01:54:48.000Z</time></trkpt><trkpt lat="45.13444" lon="5.89633"><ele>1785</ele><time>2000-01-01T01:54:58.000Z</time></trkpt><trkpt lat="45.13446" lon="5.89674"><ele>1786</ele><time>2000-01-01T01:55:08.000Z</time></trkpt><trkpt lat="45.13479" lon="5.89698"><ele>1787</ele><time>2000-01-01T01:55:18.000Z</time></trkpt><trkpt lat="45.13494" lon="5.8976"><ele>1791</ele><time>2000-01-01T01:55:28.000Z</time></trkpt><trkpt lat="45.13509" lon="5.89788"><ele>1787</ele><time>2000-01-01T01:55:38.000Z</time></trkpt><trkpt lat="45.13524" lon="5.8982"><ele>1783</ele><time>2000-01-01T01:55:48.000Z</time></trkpt><trkpt lat="45.13539" lon="5.89854"><ele>1781</ele><time>2000-01-01T01:55:58.000Z</time></trkpt><trkpt lat="45.13561" lon="5.89906"><ele>1775</ele><time>2000-01-01T01:56:08.000Z</time></trkpt><trkpt lat="45.13555" lon="5.89942"><ele>1767</ele><time>2000-01-01T01:56:18.000Z</time></trkpt><trkpt lat="45.13541" lon="5.89973"><ele>1765</ele><time>2000-01-01T01:56:28.000Z</time></trkpt><trkpt lat="45.13526" lon="5.90009"><ele>1763</ele><time>2000-01-01T01:56:38.000Z</time></trkpt><trkpt lat="45.13546" lon="5.90047"><ele>1767</ele><time>2000-01-01T01:56:48.000Z</time></trkpt><trkpt lat="45.13556" lon="5.90095"><ele>1772</ele><time>2000-01-01T01:56:58.000Z</time></trkpt><trkpt lat="45.13547" lon="5.9014"><ele>1785</ele><time>2000-01-01T01:57:08.000Z</time></trkpt><trkpt lat="45.13531" lon="5.90175"><ele>1794</ele><time>2000-01-01T01:57:18.000Z</time></trkpt><trkpt lat="45.13518" lon="5.90204"><ele>1802</ele><time>2000-01-01T01:57:28.000Z</time></trkpt><trkpt lat="45.13505" lon="5.90234"><ele>1807</ele><time>2000-01-01T01:57:38.000Z</time></trkpt><trkpt lat="45.13484" lon="5.90247"><ele>1809</ele><time>2000-01-01T01:57:48.000Z</time></trkpt><trkpt lat="45.13473" lon="5.90298"><ele>1808</ele><time>2000-01-01T01:57:58.000Z</time></trkpt><trkpt lat="45.13487" lon="5.90333"><ele>1807</ele><time>2000-01-01T01:58:08.000Z</time></trkpt><trkpt lat="45.13478" lon="5.90365"><ele>1807</ele><time>2000-01-01T01:58:18.000Z</time></trkpt><trkpt lat="45.13468" lon="5.90399"><ele>1812</ele><time>2000-01-01T01:58:28.000Z</time></trkpt><trkpt lat="45.13474" lon="5.9044"><ele>1822</ele><time>2000-01-01T01:58:38.000Z</time></trkpt><trkpt lat="45.1345" lon="5.90479"><ele>1846</ele><time>2000-01-01T01:58:48.000Z</time></trkpt><trkpt lat="45.13456" lon="5.90514"><ele>1848</ele><time>2000-01-01T01:58:58.000Z</time></trkpt><trkpt lat="45.13464" lon="5.90558"><ele>1851</ele><time>2000-01-01T01:59:08.000Z</time></trkpt><trkpt lat="45.13449" lon="5.90591"><ele>1869</ele><time>2000-01-01T01:59:18.000Z</time></trkpt><trkpt lat="45.13428" lon="5.90637"><ele>1879</ele><time>2000-01-01T01:59:28.000Z</time></trkpt><trkpt lat="45.13429" lon="5.90689"><ele>1885</ele><time>2000-01-01T01:59:38.000Z</time></trkpt><trkpt lat="45.13447" lon="5.9073"><ele>1902</ele><time>2000-01-01T01:59:48.000Z</time></trkpt><trkpt lat="45.13441" lon="5.90783"><ele>1906</ele><time>2000-01-01T01:59:58.000Z</time></trkpt><trkpt lat="45.13453" lon="5.90843"><ele>1910</ele><time>2000-01-01T02:00:08.000Z</time></trkpt><trkpt lat="45.13446" lon="5.90888"><ele>1914</ele><time>2000-01-01T02:00:18.000Z</time></trkpt><trkpt lat="45.13468" lon="5.9091"><ele>1918</ele><time>2000-01-01T02:00:28.000Z</time></trkpt><trkpt lat="45.13458" lon="5.90949"><ele>1926</ele><time>2000-01-01T02:00:38.000Z</time></trkpt><trkpt lat="45.13484" lon="5.90972"><ele>1936</ele><time>2000-01-01T02:00:48.000Z</time></trkpt><trkpt lat="45.13497" lon="5.91028"><ele>1957</ele><time>2000-01-01T02:00:58.000Z</time></trkpt><trkpt lat="45.13488" lon="5.91061"><ele>1971</ele><time>2000-01-01T02:01:08.000Z</time></trkpt><trkpt lat="45.13479" lon="5.91097"><ele>1987</ele><time>2000-01-01T02:01:18.000Z</time></trkpt><trkpt lat="45.13491" lon="5.91152"><ele>1999</ele><time>2000-01-01T02:01:28.000Z</time></trkpt><trkpt lat="45.13487" lon="5.91192"><ele>2026</ele><time>2000-01-01T02:01:38.000Z</time></trkpt><trkpt lat="45.13482" lon="5.91251"><ele>2044</ele><time>2000-01-01T02:01:48.000Z</time></trkpt><trkpt lat="45.1346" lon="5.91285"><ele>2049</ele><time>2000-01-01T02:01:58.000Z</time></trkpt><trkpt lat="45.13438" lon="5.91319"><ele>2049</ele><time>2000-01-01T02:02:08.000Z</time></trkpt><trkpt lat="45.13414" lon="5.91356"><ele>2049</ele><time>2000-01-01T02:02:18.000Z</time></trkpt><trkpt lat="45.13397" lon="5.91395"><ele>2042</ele><time>2000-01-01T02:02:28.000Z</time></trkpt><trkpt lat="45.13408" lon="5.91414"><time>2000-01-01T02:02:38.000Z</time></trkpt><trkpt lat="45.13388" lon="5.91487"><ele>2035</ele><time>2000-01-01T02:02:48.000Z</time></trkpt><trkpt lat="45.13379" lon="5.91524"><ele>2032</ele><time>2000-01-01T02:02:58.000Z</time></trkpt><trkpt lat="45.13365" lon="5.91575"><ele>2030</ele><time>2000-01-01T02:03:08.000Z</time></trkpt><trkpt lat="45.13349" lon="5.91637"><ele>2023</ele><time>2000-01-01T02:03:18.000Z</time></trkpt><trkpt lat="45.13322" lon="5.91646"><ele>2023</ele><time>2000-01-01T02:03:28.000Z</time></trkpt><trkpt lat="45.13311" lon="5.91674"><ele>2021</ele><time>2000-01-01T02:03:38.000Z</time></trkpt><trkpt lat="45.13282" lon="5.9168"><ele>2019</ele><time>2000-01-01T02:03:48.000Z</time></trkpt><trkpt lat="45.13273" lon="5.9173"><ele>2021</ele><time>2000-01-01T02:03:58.000Z</time></trkpt><trkpt lat="45.13306" lon="5.91748"><ele>2023</ele><time>2000-01-01T02:04:08.000Z</time></trkpt><trkpt lat="45.13338" lon="5.91766"><ele>2024</ele><time>2000-01-01T02:04:18.000Z</time></trkpt><trkpt lat="45.13363" lon="5.9178"><ele>2025</ele><time>2000-01-01T02:04:28.000Z</time></trkpt><trkpt lat="45.13394" lon="5.91798"><ele>2019</ele><time>2000-01-01T02:04:38.000Z</time></trkpt><trkpt lat="45.13406" lon="5.91846"><ele>2020</ele><time>2000-01-01T02:04:48.000Z</time></trkpt><trkpt lat="45.13435" lon="5.91876"><ele>2022</ele><time>2000-01-01T02:04:58.000Z</time></trkpt><trkpt lat="45.13463" lon="5.91906"><ele>2025</ele><time>2000-01-01T02:05:08.000Z</time></trkpt><trkpt lat="45.13486" lon="5.9193"><ele>2023</ele><time>2000-01-01T02:05:18.000Z</time></trkpt><trkpt lat="45.1352" lon="5.91966"><ele>2021</ele><time>2000-01-01T02:05:28.000Z</time></trkpt><trkpt lat="45.13544" lon="5.91989"><ele>2019</ele><time>2000-01-01T02:05:38.000Z</time></trkpt><trkpt lat="45.13583" lon="5.91987"><ele>1998</ele><time>2000-01-01T02:05:48.000Z</time></trkpt><trkpt lat="45.13571" lon="5.92043"><ele>1982</ele><time>2000-01-01T02:05:58.000Z</time></trkpt><trkpt lat="45.13596" lon="5.92045"><ele>1982</ele><time>2000-01-01T02:06:08.000Z</time></trkpt><trkpt lat="45.13624" lon="5.92047"><ele>1976</ele><time>2000-01-01T02:06:18.000Z</time></trkpt><trkpt lat="45.13648" lon="5.92063"><ele>1959</ele><time>2000-01-01T02:06:28.000Z</time></trkpt><trkpt lat="45.13679" lon="5.92084"><ele>1949</ele><time>2000-01-01T02:06:38.000Z</time></trkpt><trkpt lat="45.13693" lon="5.92119"><ele>1950</ele><time>2000-01-01T02:06:48.000Z</time></trkpt><trkpt lat="45.13715" lon="5.92172"><ele>1951</ele><time>2000-01-01T02:06:58.000Z</time></trkpt><trkpt lat="45.13755" lon="5.9218"><ele>1948</ele><time>2000-01-01T02:07:08.000Z</time></trkpt><trkpt lat="45.13768" lon="5.92208"><ele>1946</ele><time>2000-01-01T02:07:18.000Z</time></trkpt><trkpt lat="45.138" lon="5.9221"><ele>1939</ele><time>2000-01-01T02:07:28.000Z</time></trkpt><trkpt lat="45.1382" lon="5.92255"><ele>1931</ele><time>2000-01-01T02:07:38.000Z</time></trkpt><trkpt lat="45.13848" lon="5.9225"><ele>1930</ele><time>2000-01-01T02:07:48.000Z</time></trkpt><trkpt lat="45.13892" lon="5.92242"><ele>1926</ele><time>2000-01-01T02:07:58.000Z</time></trkpt><trkpt lat="45.1392" lon="5.92254"><ele>1920</ele><time>2000-01-01T02:08:08.000Z</time></trkpt><trkpt lat="45.1396" lon="5.9227"><ele>1918</ele><time>2000-01-01T02:08:18.000Z</time></trkpt><trkpt lat="45.13965" lon="5.92305"><ele>1920</ele><time>2000-01-01T02:08:28.000Z</time></trkpt><trkpt lat="45.13969" lon="5.92341"><ele>1923</ele><time>2000-01-01T02:08:38.000Z</time></trkpt><trkpt lat="45.14007" lon="5.92356"><ele>1927</ele><time>2000-01-01T02:08:48.000Z</time></trkpt><trkpt lat="45.14044" lon="5.92371"><ele>1931</ele><time>2000-01-01T02:08:58.000Z</time></trkpt><trkpt lat="45.14081" lon="5.92386"><ele>1930</ele><time>2000-01-01T02:09:08.000Z</time></trkpt><trkpt lat="45.14118" lon="5.92401"><ele>1929</ele><time>2000-01-01T02:09:18.000Z</time></trkpt><trkpt lat="45.14142" lon="5.9241"><ele>1929</ele><time>2000-01-01T02:09:28.000Z</time></trkpt><trkpt lat="45.14168" lon="5.92421"><ele>1932</ele><time>2000-01-01T02:09:38.000Z</time></trkpt><trkpt lat="45.14198" lon="5.92444"><ele>1935</ele><time>2000-01-01T02:09:48.000Z</time></trkpt><trkpt lat="45.14228" lon="5.92468"><ele>1940</ele><time>2000-01-01T02:09:58.000Z</time></trkpt><trkpt lat="45.1425" lon="5.92486"><ele>1943</ele><time>2000-01-01T02:10:08.000Z</time></trkpt><trkpt lat="45.14277" lon="5.92506"><ele>1945</ele><time>2000-01-01T02:10:18.000Z</time></trkpt><trkpt lat="45.14315" lon="5.92481"><ele>1947</ele><time>2000-01-01T02:10:28.000Z</time></trkpt><trkpt lat="45.14338" lon="5.92489"><ele>1947</ele><time>2000-01-01T02:10:38.000Z</time></trkpt><trkpt lat="45.14363" lon="5.92498"><ele>1936</ele><time>2000-01-01T02:10:48.000Z</time></trkpt><trkpt lat="45.14379" lon="5.92532"><ele>1929</ele><time>2000-01-01T02:10:58.000Z</time></trkpt><trkpt lat="45.14404" lon="5.92586"><ele>1907</ele><time>2000-01-01T02:11:08.000Z</time></trkpt><trkpt lat="45.14424" lon="5.92612"><ele>1893</ele><time>2000-01-01T02:11:18.000Z</time></trkpt><trkpt lat="45.14451" lon="5.92648"><ele>1892</ele><time>2000-01-01T02:11:28.000Z</time></trkpt><trkpt lat="45.14475" lon="5.92652"><ele>1867</ele><time>2000-01-01T02:11:38.000Z</time></trkpt><trkpt lat="45.14499" lon="5.92657"><ele>1869</ele><time>2000-01-01T02:11:48.000Z</time></trkpt><trkpt lat="45.14519" lon="5.92697"><ele>1859</ele><time>2000-01-01T02:11:58.000Z</time></trkpt><trkpt lat="45.1454" lon="5.92693"><ele>1849</ele><time>2000-01-01T02:12:08.000Z</time></trkpt><trkpt lat="45.14555" lon="5.92721"><ele>1847</ele><time>2000-01-01T02:12:18.000Z</time></trkpt><trkpt lat="45.14572" lon="5.92751"><ele>1853</ele><time>2000-01-01T02:12:28.000Z</time></trkpt><trkpt lat="45.14589" lon="5.92779"><ele>1859</ele><time>2000-01-01T02:12:38.000Z</time></trkpt><trkpt lat="45.14608" lon="5.92811"><ele>1869</ele><time>2000-01-01T02:12:48.000Z</time></trkpt><trkpt lat="45.14631" lon="5.92843"><ele>1891</ele><time>2000-01-01T02:12:58.000Z</time></trkpt><trkpt lat="45.14645" lon="5.9287"><ele>1906</ele><time>2000-01-01T02:13:08.000Z</time></trkpt><trkpt lat="45.1466" lon="5.92897"><ele>1912</ele><time>2000-01-01T02:13:18.000Z</time></trkpt><trkpt lat="45.14684" lon="5.929"><ele>1918</ele><time>2000-01-01T02:13:28.000Z</time></trkpt><trkpt lat="45.14708" lon="5.92903"><ele>1919</ele><time>2000-01-01T02:13:38.000Z</time></trkpt><trkpt lat="45.14732" lon="5.92929"><ele>1919</ele><time>2000-01-01T02:13:48.000Z</time></trkpt><trkpt lat="45.14749" lon="5.9296"><ele>1918</ele><time>2000-01-01T02:13:58.000Z</time></trkpt><trkpt lat="45.14773" lon="5.93004"><ele>1918</ele><time>2000-01-01T02:14:08.000Z</time></trkpt><trkpt lat="45.14787" lon="5.93038"><ele>1918</ele><time>2000-01-01T02:14:18.000Z</time></trkpt><trkpt lat="45.14805" lon="5.93084"><ele>1934</ele><time>2000-01-01T02:14:28.000Z</time></trkpt><trkpt lat="45.14829" lon="5.93097"><ele>1940</ele><time>2000-01-01T02:14:38.000Z</time></trkpt><trkpt lat="45.14858" lon="5.93114"><ele>1962</ele><time>2000-01-01T02:14:48.000Z</time></trkpt><trkpt lat="45.14874" lon="5.93144"><ele>1977</ele><time>2000-01-01T02:14:58.000Z</time></trkpt><trkpt lat="45.14896" lon="5.93182"><ele>2001</ele><time>2000-01-01T02:15:08.000Z</time></trkpt><trkpt lat="45.14917" lon="5.93212"><ele>2018</ele><time>2000-01-01T02:15:18.000Z</time></trkpt><trkpt lat="45.14935" lon="5.93236"><ele>2018</ele><time>2000-01-01T02:15:28.000Z</time></trkpt><trkpt lat="45.14953" lon="5.93262"><ele>2020</ele><time>2000-01-01T02:15:38.000Z</time></trkpt><trkpt lat="45.14977" lon="5.93267"><ele>2019</ele><time>2000-01-01T02:15:48.000Z</time></trkpt><trkpt lat="45.15" lon="5.93272"><ele>2019</ele><time>2000-01-01T02:15:58.000Z</time></trkpt><trkpt lat="45.15018" lon="5.93239"><ele>2018</ele><time>2000-01-01T02:16:08.000Z</time></trkpt><trkpt lat="45.15032" lon="5.93212"><ele>2019</ele><time>2000-01-01T02:16:18.000Z</time></trkpt><trkpt lat="45.15047" lon="5.93184"><ele>2021</ele><time>2000-01-01T02:16:28.000Z</time></trkpt><trkpt lat="45.15061" lon="5.93227"><ele>2027</ele><time>2000-01-01T02:16:38.000Z</time></trkpt><trkpt lat="45.15074" lon="5.93269"><ele>2045</ele><time>2000-01-01T02:16:48.000Z</time></trkpt><trkpt lat="45.15091" lon="5.93322"><ele>2049</ele><time>2000-01-01T02:16:58.000Z</time></trkpt><trkpt lat="45.15092" lon="5.9336"><ele>2053</ele><time>2000-01-01T02:17:08.000Z</time></trkpt><trkpt lat="45.15118" lon="5.93379"><ele>2057</ele><time>2000-01-01T02:17:18.000Z</time></trkpt><trkpt lat="45.15159" lon="5.9341"><ele>2057</ele><time>2000-01-01T02:17:28.000Z</time></trkpt><trkpt lat="45.15184" lon="5.9343"><ele>2050</ele><time>2000-01-01T02:17:38.000Z</time></trkpt><trkpt lat="45.15224" lon="5.93461"><ele>2043</ele><time>2000-01-01T02:17:48.000Z</time></trkpt><trkpt lat="45.15248" lon="5.93489"><ele>2046</ele><time>2000-01-01T02:17:58.000Z</time></trkpt><trkpt lat="45.15258" lon="5.93527"><ele>2050</ele><time>2000-01-01T02:18:08.000Z</time></trkpt><trkpt lat="45.15273" lon="5.93584"><ele>2059</ele><time>2000-01-01T02:18:18.000Z</time></trkpt><trkpt lat="45.15295" lon="5.93608"><ele>2059</ele><time>2000-01-01T02:18:28.000Z</time></trkpt><trkpt lat="45.15325" lon="5.93642"><ele>2060</ele><time>2000-01-01T02:18:38.000Z</time></trkpt><trkpt lat="45.15349" lon="5.93676"><ele>2058</ele><time>2000-01-01T02:18:48.000Z</time></trkpt><trkpt lat="45.15372" lon="5.9371"><ele>2059</ele><time>2000-01-01T02:18:58.000Z</time></trkpt><trkpt lat="45.15404" lon="5.93757"><ele>2058</ele><time>2000-01-01T02:19:08.000Z</time></trkpt><trkpt lat="45.15418" lon="5.93792"><ele>2058</ele><time>2000-01-01T02:19:18.000Z</time></trkpt><trkpt lat="45.15439" lon="5.93841"><ele>2065</ele><time>2000-01-01T02:19:28.000Z</time></trkpt><trkpt lat="45.15457" lon="5.93866"><ele>2063</ele><time>2000-01-01T02:19:38.000Z</time></trkpt><trkpt lat="45.15477" lon="5.93895"><ele>2062</ele><time>2000-01-01T02:19:48.000Z</time></trkpt><trkpt lat="45.15492" lon="5.93924"><ele>2064</ele><time>2000-01-01T02:19:58.000Z</time></trkpt><trkpt lat="45.15512" lon="5.93961"><ele>2061</ele><time>2000-01-01T02:20:08.000Z</time></trkpt><trkpt lat="45.15521" lon="5.93993"><ele>2062</ele><time>2000-01-01T02:20:18.000Z</time></trkpt><trkpt lat="45.1553" lon="5.94026"><ele>2064</ele><time>2000-01-01T02:20:28.000Z</time></trkpt><trkpt lat="45.15548" lon="5.94086"><ele>2060</ele><time>2000-01-01T02:20:38.000Z</time></trkpt><trkpt lat="45.1559" lon="5.94105"><ele>2059</ele><time>2000-01-01T02:20:48.000Z</time></trkpt><trkpt lat="45.15602" lon="5.94137"><ele>2060</ele><time>2000-01-01T02:20:58.000Z</time></trkpt><trkpt lat="45.15614" lon="5.94174"><ele>2062</ele><time>2000-01-01T02:21:08.000Z</time></trkpt><trkpt lat="45.15641" lon="5.94183"><ele>2064</ele><time>2000-01-01T02:21:18.000Z</time></trkpt><trkpt lat="45.15677" lon="5.94195"><ele>2071</ele><time>2000-01-01T02:21:28.000Z</time></trkpt><trkpt lat="45.15705" lon="5.942"><ele>2072</ele><time>2000-01-01T02:21:38.000Z</time></trkpt><trkpt lat="45.15746" lon="5.94208"><ele>2082</ele><time>2000-01-01T02:21:48.000Z</time></trkpt><trkpt lat="45.15768" lon="5.94235"><ele>2092</ele><time>2000-01-01T02:21:58.000Z</time></trkpt><trkpt lat="45.15801" lon="5.94277"><ele>2095</ele><time>2000-01-01T02:22:08.000Z</time></trkpt><trkpt lat="45.15825" lon="5.94291"><ele>2096</ele><time>2000-01-01T02:22:18.000Z</time></trkpt><trkpt lat="45.15855" lon="5.94309"><ele>2098</ele><time>2000-01-01T02:22:28.000Z</time></trkpt><trkpt lat="45.15878" lon="5.94328"><ele>2099</ele><time>2000-01-01T02:22:38.000Z</time></trkpt><trkpt lat="45.15908" lon="5.94352"><ele>2101</ele><time>2000-01-01T02:22:48.000Z</time></trkpt><trkpt lat="45.15933" lon="5.94371"><ele>2101</ele><time>2000-01-01T02:22:58.000Z</time></trkpt><trkpt lat="45.15972" lon="5.94401"><ele>2104</ele><time>2000-01-01T02:23:08.000Z</time></trkpt><trkpt lat="45.15994" lon="5.94422"><ele>2107</ele><time>2000-01-01T02:23:18.000Z</time></trkpt><trkpt lat="45.16025" lon="5.9445"><ele>2107</ele><time>2000-01-01T02:23:28.000Z</time></trkpt><trkpt lat="45.16062" lon="5.94465"><ele>2107</ele><time>2000-01-01T02:23:38.000Z</time></trkpt><trkpt lat="45.16087" lon="5.94453"><ele>2107</ele><time>2000-01-01T02:23:48.000Z</time></trkpt><trkpt lat="45.16118" lon="5.94438"><ele>2107</ele><time>2000-01-01T02:23:58.000Z</time></trkpt><trkpt lat="45.16118" lon="5.94438"><time>2000-01-01T02:24:08.000Z</time></trkpt><trkpt lat="45.16087" lon="5.94453"><ele>2107</ele><time>2000-01-01T02:24:18.000Z</time></trkpt><trkpt lat="45.16062" lon="5.94465"><ele>2107</ele><time>2000-01-01T02:24:28.000Z</time></trkpt><trkpt lat="45.16025" lon="5.9445"><ele>2107</ele><time>2000-01-01T02:24:38.000Z</time></trkpt><trkpt lat="45.15994" lon="5.94422"><ele>2107</ele><time>2000-01-01T02:24:48.000Z</time></trkpt><trkpt lat="45.15972" lon="5.94401"><ele>2104</ele><time>2000-01-01T02:24:58.000Z</time></trkpt><trkpt lat="45.15933" lon="5.94371"><ele>2101</ele><time>2000-01-01T02:25:08.000Z</time></trkpt><trkpt lat="45.15908" lon="5.94352"><ele>2101</ele><time>2000-01-01T02:25:18.000Z</time></trkpt><trkpt lat="45.15878" lon="5.94328"><ele>2099</ele><time>2000-01-01T02:25:28.000Z</time></trkpt><trkpt lat="45.15855" lon="5.94309"><ele>2099</ele><time>2000-01-01T02:25:38.000Z</time></trkpt><trkpt lat="45.15825" lon="5.94291"><ele>2099</ele><time>2000-01-01T02:25:48.000Z</time></trkpt><trkpt lat="45.15801" lon="5.94277"><ele>2095</ele><time>2000-01-01T02:25:58.000Z</time></trkpt><trkpt lat="45.15768" lon="5.94235"><ele>2094</ele><time>2000-01-01T02:26:08.000Z</time></trkpt><trkpt lat="45.15746" lon="5.94208"><ele>2093</ele><time>2000-01-01T02:26:18.000Z</time></trkpt><trkpt lat="45.15705" lon="5.942"><ele>2072</ele><time>2000-01-01T02:26:28.000Z</time></trkpt><trkpt lat="45.15677" lon="5.94195"><ele>2071</ele><time>2000-01-01T02:26:38.000Z</time></trkpt><trkpt lat="45.15641" lon="5.94183"><ele>2064</ele><time>2000-01-01T02:26:48.000Z</time></trkpt><trkpt lat="45.15614" lon="5.94174"><ele>2062</ele><time>2000-01-01T02:26:58.000Z</time></trkpt><trkpt lat="45.15602" lon="5.94137"><ele>2058</ele><time>2000-01-01T02:27:08.000Z</time></trkpt><trkpt lat="45.1559" lon="5.94105"><ele>2063</ele><time>2000-01-01T02:27:18.000Z</time></trkpt><trkpt lat="45.15548" lon="5.94086"><ele>2063</ele><time>2000-01-01T02:27:28.000Z</time></trkpt><trkpt lat="45.1553" lon="5.94026"><ele>2061</ele><time>2000-01-01T02:27:38.000Z</time></trkpt><trkpt lat="45.15521" lon="5.93993"><ele>2063</ele><time>2000-01-01T02:27:48.000Z</time></trkpt><trkpt lat="45.15512" lon="5.93961"><ele>2060</ele><time>2000-01-01T02:27:58.000Z</time></trkpt><trkpt lat="45.15492" lon="5.93924"><ele>2061</ele><time>2000-01-01T02:28:08.000Z</time></trkpt><trkpt lat="45.15477" lon="5.93895"><ele>2062</ele><time>2000-01-01T02:28:18.000Z</time></trkpt><trkpt lat="45.15457" lon="5.93866"><ele>2063</ele><time>2000-01-01T02:28:28.000Z</time></trkpt><trkpt lat="45.15439" lon="5.93841"><ele>2060</ele><time>2000-01-01T02:28:38.000Z</time></trkpt><trkpt lat="45.15418" lon="5.93792"><ele>2060</ele><time>2000-01-01T02:28:48.000Z</time></trkpt><trkpt lat="45.15404" lon="5.93757"><ele>2058</ele><time>2000-01-01T02:28:58.000Z</time></trkpt><trkpt lat="45.15372" lon="5.9371"><ele>2060</ele><time>2000-01-01T02:29:08.000Z</time></trkpt><trkpt lat="45.15349" lon="5.93676"><ele>2060</ele><time>2000-01-01T02:29:18.000Z</time></trkpt><trkpt lat="45.15325" lon="5.93642"><ele>2060</ele><time>2000-01-01T02:29:28.000Z</time></trkpt><trkpt lat="45.15295" lon="5.93608"><ele>2059</ele><time>2000-01-01T02:29:38.000Z</time></trkpt><trkpt lat="45.15273" lon="5.93584"><ele>2059</ele><time>2000-01-01T02:29:48.000Z</time></trkpt><trkpt lat="45.15258" lon="5.93527"><ele>2050</ele><time>2000-01-01T02:29:58.000Z</time></trkpt><trkpt lat="45.15248" lon="5.93489"><ele>2046</ele><time>2000-01-01T02:30:08.000Z</time></trkpt><trkpt lat="45.15224" lon="5.93461"><ele>2052</ele><time>2000-01-01T02:30:18.000Z</time></trkpt><trkpt lat="45.15184" lon="5.9343"><ele>2058</ele><time>2000-01-01T02:30:28.000Z</time></trkpt><trkpt lat="45.15159" lon="5.9341"><ele>2057</ele><time>2000-01-01T02:30:38.000Z</time></trkpt><trkpt lat="45.15118" lon="5.93379"><ele>2057</ele><time>2000-01-01T02:30:48.000Z</time></trkpt><trkpt lat="45.15092" lon="5.9336"><ele>2053</ele><time>2000-01-01T02:30:58.000Z</time></trkpt><trkpt lat="45.15091" lon="5.93322"><ele>2049</ele><time>2000-01-01T02:31:08.000Z</time></trkpt><trkpt lat="45.15074" lon="5.93269"><ele>2045</ele><time>2000-01-01T02:31:18.000Z</time></trkpt><trkpt lat="45.15061" lon="5.93227"><ele>2027</ele><time>2000-01-01T02:31:28.000Z</time></trkpt><trkpt lat="45.15047" lon="5.93184"><ele>2021</ele><time>2000-01-01T02:31:38.000Z</time></trkpt><trkpt lat="45.15033" lon="5.93211"><ele>2020</ele><time>2000-01-01T02:31:48.000Z</time></trkpt><trkpt lat="45.15018" lon="5.93239"><ele>2020</ele><time>2000-01-01T02:31:58.000Z</time></trkpt><trkpt lat="45.15" lon="5.93272"><ele>2021</ele><time>2000-01-01T02:32:08.000Z</time></trkpt><trkpt lat="45.14977" lon="5.93267"><ele>2022</ele><time>2000-01-01T02:32:18.000Z</time></trkpt><trkpt lat="45.14953" lon="5.93262"><ele>2020</ele><time>2000-01-01T02:32:28.000Z</time></trkpt><trkpt lat="45.14936" lon="5.93237"><ele>2018</ele><time>2000-01-01T02:32:38.000Z</time></trkpt><trkpt lat="45.14917" lon="5.93212"><ele>2018</ele><time>2000-01-01T02:32:48.000Z</time></trkpt><trkpt lat="45.14896" lon="5.93182"><ele>2001</ele><time>2000-01-01T02:32:58.000Z</time></trkpt><trkpt lat="45.14874" lon="5.93144"><ele>1977</ele><time>2000-01-01T02:33:08.000Z</time></trkpt><trkpt lat="45.14858" lon="5.93114"><ele>1962</ele><time>2000-01-01T02:33:18.000Z</time></trkpt><trkpt lat="45.14829" lon="5.93097"><ele>1940</ele><time>2000-01-01T02:33:28.000Z</time></trkpt><trkpt lat="45.14805" lon="5.93084"><ele>1934</ele><time>2000-01-01T02:33:38.000Z</time></trkpt><trkpt lat="45.14787" lon="5.93038"><ele>1918</ele><time>2000-01-01T02:33:48.000Z</time></trkpt><trkpt lat="45.14773" lon="5.93004"><ele>1918</ele><time>2000-01-01T02:33:58.000Z</time></trkpt><trkpt lat="45.14749" lon="5.9296"><ele>1920</ele><time>2000-01-01T02:34:08.000Z</time></trkpt><trkpt lat="45.14732" lon="5.92929"><ele>1919</ele><time>2000-01-01T02:34:18.000Z</time></trkpt><trkpt lat="45.14708" lon="5.92903"><ele>1919</ele><time>2000-01-01T02:34:28.000Z</time></trkpt><trkpt lat="45.14684" lon="5.929"><ele>1920</ele><time>2000-01-01T02:34:38.000Z</time></trkpt><trkpt lat="45.1466" lon="5.92897"><ele>1913</ele><time>2000-01-01T02:34:48.000Z</time></trkpt><trkpt lat="45.14645" lon="5.9287"><ele>1906</ele><time>2000-01-01T02:34:58.000Z</time></trkpt><trkpt lat="45.14631" lon="5.92843"><ele>1891</ele><time>2000-01-01T02:35:08.000Z</time></trkpt><trkpt lat="45.14608" lon="5.92811"><ele>1869</ele><time>2000-01-01T02:35:18.000Z</time></trkpt><trkpt lat="45.14589" lon="5.92779"><ele>1859</ele><time>2000-01-01T02:35:28.000Z</time></trkpt><trkpt lat="45.14572" lon="5.92751"><ele>1853</ele><time>2000-01-01T02:35:38.000Z</time></trkpt><trkpt lat="45.14555" lon="5.92721"><ele>1851</ele><time>2000-01-01T02:35:48.000Z</time></trkpt><trkpt lat="45.1454" lon="5.92693"><ele>1861</ele><time>2000-01-01T02:35:58.000Z</time></trkpt><trkpt lat="45.14519" lon="5.92697"><ele>1853</ele><time>2000-01-01T02:36:08.000Z</time></trkpt><trkpt lat="45.14499" lon="5.92657"><ele>1860</ele><time>2000-01-01T02:36:18.000Z</time></trkpt><trkpt lat="45.14475" lon="5.92652"><ele>1867</ele><time>2000-01-01T02:36:28.000Z</time></trkpt><trkpt lat="45.14451" lon="5.92648"><ele>1892</ele><time>2000-01-01T02:36:38.000Z</time></trkpt><trkpt lat="45.14424" lon="5.92612"><ele>1893</ele><time>2000-01-01T02:36:48.000Z</time></trkpt><trkpt lat="45.14404" lon="5.92586"><ele>1907</ele><time>2000-01-01T02:36:58.000Z</time></trkpt><trkpt lat="45.14379" lon="5.92532"><ele>1929</ele><time>2000-01-01T02:37:08.000Z</time></trkpt><trkpt lat="45.14363" lon="5.92498"><ele>1936</ele><time>2000-01-01T02:37:18.000Z</time></trkpt><trkpt lat="45.14338" lon="5.92489"><ele>1947</ele><time>2000-01-01T02:37:28.000Z</time></trkpt><trkpt lat="45.14315" lon="5.92481"><ele>1947</ele><time>2000-01-01T02:37:38.000Z</time></trkpt><trkpt lat="45.14277" lon="5.92506"><ele>1945</ele><time>2000-01-01T02:37:48.000Z</time></trkpt><trkpt lat="45.14254" lon="5.92489"><ele>1943</ele><time>2000-01-01T02:37:58.000Z</time></trkpt><trkpt lat="45.14228" lon="5.92468"><ele>1940</ele><time>2000-01-01T02:38:08.000Z</time></trkpt><trkpt lat="45.14198" lon="5.92444"><ele>1935</ele><time>2000-01-01T02:38:18.000Z</time></trkpt><trkpt lat="45.14168" lon="5.92421"><ele>1932</ele><time>2000-01-01T02:38:28.000Z</time></trkpt><trkpt lat="45.14144" lon="5.92411"><ele>1929</ele><time>2000-01-01T02:38:38.000Z</time></trkpt><trkpt lat="45.14118" lon="5.92401"><ele>1929</ele><time>2000-01-01T02:38:48.000Z</time></trkpt><trkpt lat="45.14081" lon="5.92386"><ele>1930</ele><time>2000-01-01T02:38:58.000Z</time></trkpt><trkpt lat="45.14044" lon="5.92371"><ele>1931</ele><time>2000-01-01T02:39:08.000Z</time></trkpt><trkpt lat="45.14007" lon="5.92356"><ele>1927</ele><time>2000-01-01T02:39:18.000Z</time></trkpt><trkpt lat="45.13969" lon="5.92341"><ele>1923</ele><time>2000-01-01T02:39:28.000Z</time></trkpt><trkpt lat="45.13965" lon="5.92305"><ele>1917</ele><time>2000-01-01T02:39:38.000Z</time></trkpt><trkpt lat="45.1396" lon="5.9227"><ele>1918</ele><time>2000-01-01T02:39:48.000Z</time></trkpt><trkpt lat="45.1392" lon="5.92254"><ele>1920</ele><time>2000-01-01T02:39:58.000Z</time></trkpt><trkpt lat="45.13892" lon="5.92242"><ele>1926</ele><time>2000-01-01T02:40:08.000Z</time></trkpt><trkpt lat="45.13848" lon="5.9225"><ele>1930</ele><time>2000-01-01T02:40:18.000Z</time></trkpt><trkpt lat="45.1382" lon="5.92255"><ele>1931</ele><time>2000-01-01T02:40:28.000Z</time></trkpt><trkpt lat="45.138" lon="5.9221"><ele>1939</ele><time>2000-01-01T02:40:38.000Z</time></trkpt><trkpt lat="45.13768" lon="5.92208"><ele>1946</ele><time>2000-01-01T02:40:48.000Z</time></trkpt><trkpt lat="45.13755" lon="5.9218"><ele>1948</ele><time>2000-01-01T02:40:58.000Z</time></trkpt><trkpt lat="45.13715" lon="5.92172"><ele>1946</ele><time>2000-01-01T02:41:08.000Z</time></trkpt><trkpt lat="45.13693" lon="5.92119"><ele>1947</ele><time>2000-01-01T02:41:18.000Z</time></trkpt><trkpt lat="45.13679" lon="5.92084"><ele>1949</ele><time>2000-01-01T02:41:28.000Z</time></trkpt><trkpt lat="45.13648" lon="5.92063"><ele>1959</ele><time>2000-01-01T02:41:38.000Z</time></trkpt><trkpt lat="45.13624" lon="5.92047"><ele>1976</ele><time>2000-01-01T02:41:48.000Z</time></trkpt><trkpt lat="45.13596" lon="5.92045"><ele>1982</ele><time>2000-01-01T02:41:58.000Z</time></trkpt><trkpt lat="45.13571" lon="5.92043"><ele>1982</ele><time>2000-01-01T02:42:08.000Z</time></trkpt><trkpt lat="45.13583" lon="5.91987"><ele>1998</ele><time>2000-01-01T02:42:18.000Z</time></trkpt><trkpt lat="45.13544" lon="5.91989"><ele>2019</ele><time>2000-01-01T02:42:28.000Z</time></trkpt><trkpt lat="45.1352" lon="5.91966"><ele>2021</ele><time>2000-01-01T02:42:38.000Z</time></trkpt><trkpt lat="45.13497" lon="5.91942"><ele>2022</ele><time>2000-01-01T02:42:48.000Z</time></trkpt><trkpt lat="45.13463" lon="5.91906"><ele>2022</ele><time>2000-01-01T02:42:58.000Z</time></trkpt><trkpt lat="45.13435" lon="5.91876"><ele>2022</ele><time>2000-01-01T02:43:08.000Z</time></trkpt><trkpt lat="45.13406" lon="5.91846"><ele>2024</ele><time>2000-01-01T02:43:18.000Z</time></trkpt><trkpt lat="45.13394" lon="5.91798"><ele>2024</ele><time>2000-01-01T02:43:28.000Z</time></trkpt><trkpt lat="45.1337" lon="5.91784"><ele>2025</ele><time>2000-01-01T02:43:38.000Z</time></trkpt><trkpt lat="45.13338" lon="5.91766"><ele>2024</ele><time>2000-01-01T02:43:48.000Z</time></trkpt><trkpt lat="45.13306" lon="5.91748"><ele>2023</ele><time>2000-01-01T02:43:58.000Z</time></trkpt><trkpt lat="45.13273" lon="5.9173"><ele>2021</ele><time>2000-01-01T02:44:08.000Z</time></trkpt><trkpt lat="45.13282" lon="5.9168"><ele>2021</ele><time>2000-01-01T02:44:18.000Z</time></trkpt><trkpt lat="45.13311" lon="5.91674"><ele>2021</ele><time>2000-01-01T02:44:28.000Z</time></trkpt><trkpt lat="45.13322" lon="5.91646"><ele>2023</ele><time>2000-01-01T02:44:38.000Z</time></trkpt><trkpt lat="45.13349" lon="5.91637"><ele>2023</ele><time>2000-01-01T02:44:48.000Z</time></trkpt><trkpt lat="45.13365" lon="5.91575"><ele>2018</ele><time>2000-01-01T02:44:58.000Z</time></trkpt><trkpt lat="45.13379" lon="5.91524"><ele>2026</ele><time>2000-01-01T02:45:08.000Z</time></trkpt><trkpt lat="45.13388" lon="5.91487"><ele>2029</ele><time>2000-01-01T02:45:18.000Z</time></trkpt><trkpt lat="45.13397" lon="5.91453"><ele>2033</ele><time>2000-01-01T02:45:28.000Z</time></trkpt><trkpt lat="45.13408" lon="5.91414"><ele>2033</ele><time>2000-01-01T02:45:38.000Z</time></trkpt><trkpt lat="45.13397" lon="5.91395"><time>2000-01-01T02:45:48.000Z</time></trkpt><trkpt lat="45.13414" lon="5.91356"><ele>2049</ele><time>2000-01-01T02:45:58.000Z</time></trkpt><trkpt lat="45.13438" lon="5.91319"><ele>2049</ele><time>2000-01-01T02:46:08.000Z</time></trkpt><trkpt lat="45.1346" lon="5.91285"><ele>2049</ele><time>2000-01-01T02:46:18.000Z</time></trkpt><trkpt lat="45.13482" lon="5.91251"><ele>2044</ele><time>2000-01-01T02:46:28.000Z</time></trkpt><trkpt lat="45.13487" lon="5.91192"><ele>2026</ele><time>2000-01-01T02:46:38.000Z</time></trkpt><trkpt lat="45.13491" lon="5.91152"><ele>1999</ele><time>2000-01-01T02:46:48.000Z</time></trkpt><trkpt lat="45.13479" lon="5.91097"><ele>1987</ele><time>2000-01-01T02:46:58.000Z</time></trkpt><trkpt lat="45.13488" lon="5.91061"><ele>1971</ele><time>2000-01-01T02:47:08.000Z</time></trkpt><trkpt lat="45.13497" lon="5.91028"><ele>1957</ele><time>2000-01-01T02:47:18.000Z</time></trkpt><trkpt lat="45.13484" lon="5.90972"><ele>1936</ele><time>2000-01-01T02:47:28.000Z</time></trkpt><trkpt lat="45.13458" lon="5.90949"><ele>1926</ele><time>2000-01-01T02:47:38.000Z</time></trkpt><trkpt lat="45.13468" lon="5.9091"><ele>1923</ele><time>2000-01-01T02:47:48.000Z</time></trkpt><trkpt lat="45.13446" lon="5.90888"><ele>1920</ele><time>2000-01-01T02:47:58.000Z</time></trkpt><trkpt lat="45.13453" lon="5.90843"><ele>1910</ele><time>2000-01-01T02:48:08.000Z</time></trkpt><trkpt lat="45.13441" lon="5.90783"><ele>1906</ele><time>2000-01-01T02:48:18.000Z</time></trkpt><trkpt lat="45.13447" lon="5.9073"><ele>1902</ele><time>2000-01-01T02:48:28.000Z</time></trkpt><trkpt lat="45.13429" lon="5.90689"><ele>1885</ele><time>2000-01-01T02:48:38.000Z</time></trkpt><trkpt lat="45.13428" lon="5.90637"><ele>1879</ele><time>2000-01-01T02:48:48.000Z</time></trkpt><trkpt lat="45.13449" lon="5.90591"><ele>1869</ele><time>2000-01-01T02:48:58.000Z</time></trkpt><trkpt lat="45.13464" lon="5.90558"><ele>1861</ele><time>2000-01-01T02:49:08.000Z</time></trkpt><trkpt lat="45.13456" lon="5.90514"><ele>1853</ele><time>2000-01-01T02:49:18.000Z</time></trkpt><trkpt lat="45.1345" lon="5.90479"><ele>1846</ele><time>2000-01-01T02:49:28.000Z</time></trkpt><trkpt lat="45.13474" lon="5.9044"><ele>1822</ele><time>2000-01-01T02:49:38.000Z</time></trkpt><trkpt lat="45.13468" lon="5.90399"><ele>1812</ele><time>2000-01-01T02:49:48.000Z</time></trkpt><trkpt lat="45.13478" lon="5.90365"><ele>1807</ele><time>2000-01-01T02:49:58.000Z</time></trkpt><trkpt lat="45.13487" lon="5.90333"><ele>1807</ele><time>2000-01-01T02:50:08.000Z</time></trkpt><trkpt lat="45.13473" lon="5.90298"><ele>1811</ele><time>2000-01-01T02:50:18.000Z</time></trkpt><trkpt lat="45.13484" lon="5.90247"><ele>1809</ele><time>2000-01-01T02:50:28.000Z</time></trkpt><trkpt lat="45.13505" lon="5.90234"><ele>1807</ele><time>2000-01-01T02:50:38.000Z</time></trkpt><trkpt lat="45.13518" lon="5.90205"><ele>1802</ele><time>2000-01-01T02:50:48.000Z</time></trkpt><trkpt lat="45.13531" lon="5.90175"><ele>1794</ele><time>2000-01-01T02:50:58.000Z</time></trkpt><trkpt lat="45.13547" lon="5.9014"><ele>1785</ele><time>2000-01-01T02:51:08.000Z</time></trkpt><trkpt lat="45.13556" lon="5.90095"><ele>1772</ele><time>2000-01-01T02:51:18.000Z</time></trkpt><trkpt lat="45.13546" lon="5.90047"><ele>1762</ele><time>2000-01-01T02:51:28.000Z</time></trkpt><trkpt lat="45.13526" lon="5.90009"><ele>1763</ele><time>2000-01-01T02:51:38.000Z</time></trkpt><trkpt lat="45.13541" lon="5.89973"><ele>1765</ele><time>2000-01-01T02:51:48.000Z</time></trkpt><trkpt lat="45.13555" lon="5.89942"><ele>1767</ele><time>2000-01-01T02:51:58.000Z</time></trkpt><trkpt lat="45.13561" lon="5.89906"><ele>1775</ele><time>2000-01-01T02:52:08.000Z</time></trkpt><trkpt lat="45.13539" lon="5.89854"><ele>1781</ele><time>2000-01-01T02:52:18.000Z</time></trkpt><trkpt lat="45.13524" lon="5.8982"><ele>1783</ele><time>2000-01-01T02:52:28.000Z</time></trkpt><trkpt lat="45.13509" lon="5.89788"><ele>1787</ele><time>2000-01-01T02:52:38.000Z</time></trkpt><trkpt lat="45.13494" lon="5.8976"><ele>1787</ele><time>2000-01-01T02:52:48.000Z</time></trkpt><trkpt lat="45.13479" lon="5.89698"><ele>1787</ele><time>2000-01-01T02:52:58.000Z</time></trkpt><trkpt lat="45.13446" lon="5.89674"><ele>1786</ele><time>2000-01-01T02:53:08.000Z</time></trkpt><trkpt lat="45.13444" lon="5.89633"><ele>1785</ele><time>2000-01-01T02:53:18.000Z</time></trkpt><trkpt lat="45.13417" lon="5.8959"><ele>1781</ele><time>2000-01-01T02:53:28.000Z</time></trkpt><trkpt lat="45.13398" lon="5.89567"><ele>1779</ele><time>2000-01-01T02:53:38.000Z</time></trkpt><trkpt lat="45.13376" lon="5.8954"><ele>1777</ele><time>2000-01-01T02:53:48.000Z</time></trkpt><trkpt lat="45.1335" lon="5.89508"><ele>1773</ele><time>2000-01-01T02:53:58.000Z</time></trkpt><trkpt lat="45.13325" lon="5.89477"><ele>1767</ele><time>2000-01-01T02:54:08.000Z</time></trkpt><trkpt lat="45.13316" lon="5.89436"><ele>1765</ele><time>2000-01-01T02:54:18.000Z</time></trkpt><trkpt lat="45.133" lon="5.8941"><ele>1764</ele><time>2000-01-01T02:54:28.000Z</time></trkpt><trkpt lat="45.13283" lon="5.89382"><ele>1764</ele><time>2000-01-01T02:54:38.000Z</time></trkpt><trkpt lat="45.13261" lon="5.89345"><ele>1764</ele><time>2000-01-01T02:54:48.000Z</time></trkpt><trkpt lat="45.13238" lon="5.89309"><ele>1764</ele><time>2000-01-01T02:54:58.000Z</time></trkpt><trkpt lat="45.13222" lon="5.89281"><ele>1762</ele><time>2000-01-01T02:55:08.000Z</time></trkpt><trkpt lat="45.13202" lon="5.89246"><ele>1767</ele><time>2000-01-01T02:55:18.000Z</time></trkpt><trkpt lat="45.13182" lon="5.89213"><ele>1764</ele><time>2000-01-01T02:55:28.000Z</time></trkpt><trkpt lat="45.13165" lon="5.89188"><ele>1768</ele><time>2000-01-01T02:55:38.000Z</time></trkpt><trkpt lat="45.13147" lon="5.89163"><ele>1773</ele><time>2000-01-01T02:55:48.000Z</time></trkpt><trkpt lat="45.13126" lon="5.89133"><ele>1773</ele><time>2000-01-01T02:55:58.000Z</time></trkpt><trkpt lat="45.13108" lon="5.8911"><ele>1771</ele><time>2000-01-01T02:56:08.000Z</time></trkpt><trkpt lat="45.13087" lon="5.89084"><ele>1769</ele><time>2000-01-01T02:56:18.000Z</time></trkpt><trkpt lat="45.13064" lon="5.89056"><ele>1765</ele><time>2000-01-01T02:56:28.000Z</time></trkpt><trkpt lat="45.13042" lon="5.89043"><ele>1762</ele><time>2000-01-01T02:56:38.000Z</time></trkpt><trkpt lat="45.13018" lon="5.8903"><ele>1758</ele><time>2000-01-01T02:56:48.000Z</time></trkpt><trkpt lat="45.1299" lon="5.89015"><ele>1759</ele><time>2000-01-01T02:56:58.000Z</time></trkpt><trkpt lat="45.12969" lon="5.88989"><ele>1761</ele><time>2000-01-01T02:57:08.000Z</time></trkpt><trkpt lat="45.12951" lon="5.88966"><ele>1765</ele><time>2000-01-01T02:57:18.000Z</time></trkpt><trkpt lat="45.12943" lon="5.88904"><ele>1770</ele><time>2000-01-01T02:57:28.000Z</time></trkpt><trkpt lat="45.1295" lon="5.88868"><ele>1776</ele><time>2000-01-01T02:57:38.000Z</time></trkpt><trkpt lat="45.12957" lon="5.88835"><ele>1790</ele><time>2000-01-01T02:57:48.000Z</time></trkpt><trkpt lat="45.12971" lon="5.88785"><ele>1791</ele><time>2000-01-01T02:57:58.000Z</time></trkpt><trkpt lat="45.12981" lon="5.88749"><ele>1786</ele><time>2000-01-01T02:58:08.000Z</time></trkpt><trkpt lat="45.13014" lon="5.8871"><ele>1788</ele><time>2000-01-01T02:58:18.000Z</time></trkpt><trkpt lat="45.13011" lon="5.88671"><ele>1790</ele><time>2000-01-01T02:58:28.000Z</time></trkpt><trkpt lat="45.13008" lon="5.88635"><ele>1791</ele><time>2000-01-01T02:58:38.000Z</time></trkpt><trkpt lat="45.12992" lon="5.88582"><ele>1792</ele><time>2000-01-01T02:58:48.000Z</time></trkpt><trkpt lat="45.12981" lon="5.88545"><ele>1813</ele><time>2000-01-01T02:58:58.000Z</time></trkpt><trkpt lat="45.12963" lon="5.88521"><ele>1813</ele><time>2000-01-01T02:59:08.000Z</time></trkpt><trkpt lat="45.12945" lon="5.88495"><ele>1810</ele><time>2000-01-01T02:59:18.000Z</time></trkpt><trkpt lat="45.12924" lon="5.88466"><ele>1808</ele><time>2000-01-01T02:59:28.000Z</time></trkpt><trkpt lat="45.12912" lon="5.8842"><ele>1798</ele><time>2000-01-01T02:59:38.000Z</time></trkpt><trkpt lat="45.12904" lon="5.88384"><ele>1785</ele><time>2000-01-01T02:59:48.000Z</time></trkpt><trkpt lat="45.12877" lon="5.88335"><ele>1778</ele><time>2000-01-01T02:59:58.000Z</time></trkpt><trkpt lat="45.12882" lon="5.88298"><ele>1778</ele><time>2000-01-01T03:00:08.000Z</time></trkpt><trkpt lat="45.12887" lon="5.88264"><ele>1778</ele><time>2000-01-01T03:00:18.000Z</time></trkpt><trkpt lat="45.12862" lon="5.88213"><ele>1764</ele><time>2000-01-01T03:00:28.000Z</time></trkpt><trkpt lat="45.12843" lon="5.88174"><ele>1755</ele><time>2000-01-01T03:00:38.000Z</time></trkpt><trkpt lat="45.12824" lon="5.88135"><ele>1746</ele><time>2000-01-01T03:00:48.000Z</time></trkpt><trkpt lat="45.12811" lon="5.88083"><ele>1743</ele><time>2000-01-01T03:00:58.000Z</time></trkpt><trkpt lat="45.12802" lon="5.88045"><ele>1741</ele><time>2000-01-01T03:01:08.000Z</time></trkpt><trkpt lat="45.12764" lon="5.88009"><ele>1728</ele><time>2000-01-01T03:01:18.000Z</time></trkpt><trkpt lat="45.1274" lon="5.87985"><ele>1716</ele><time>2000-01-01T03:01:28.000Z</time></trkpt><trkpt lat="45.1271" lon="5.87996"><ele>1701</ele><time>2000-01-01T03:01:38.000Z</time></trkpt><trkpt lat="45.12668" lon="5.87978"><ele>1690</ele><time>2000-01-01T03:01:48.000Z</time></trkpt><trkpt lat="45.1264" lon="5.87966"><ele>1681</ele><time>2000-01-01T03:01:58.000Z</time></trkpt><trkpt lat="45.12631" lon="5.87912"><ele>1678</ele><time>2000-01-01T03:02:08.000Z</time></trkpt></trkseg></trk></gpx>